Time;durP1;ratioP1;P1;durP2;ratioP2;P2;SDS_P1;SDS_P2;PMS_P1;PMS_P2;Temp;Humidity;BMP_temperature;BMP_pressure;BME280_temperature;BME280_humidity;BME280_pressure;Samples;Min_cycle;Max_cycle;Signal;HPM_P1;HPM_P2
2022/01/03 00:01:40;;;;;;;3.22;2.80;;;15.20;52.00;;;;;;5127148;27;47925;-16
2022/01/03 00:04:08;;;;;;;3.90;3.10;;;15.30;52.00;;;;;;5127008;27;46903;-15
2022/01/03 00:06:35;;;;;;;3.92;2.85;;;15.20;52.00;;;;;;5126988;27;46927;-15
2022/01/03 00:09:02;;;;;;;3.72;2.88;;;15.30;52.00;;;;;;5126992;27;46932;-15
2022/01/03 00:11:29;;;;;;;5.47;3.13;;;15.20;52.00;;;;;;5126934;27;48206;-15
2022/01/03 00:13:55;;;;;;;2.95;2.50;;;15.30;52.10;;;;;;5126758;27;46929;-15
2022/01/03 00:16:24;;;;;;;3.20;2.65;;;15.30;52.00;;;;;;5126549;27;46797;-15
2022/01/03 00:18:51;;;;;;;4.10;3.05;;;15.30;52.00;;;;;;5126777;27;47354;-15
2022/01/03 00:21:20;;;;;;;4.70;2.95;;;15.30;52.00;;;;;;5126760;27;48217;-15
2022/01/03 00:23:49;;;;;;;2.97;2.63;;;15.30;52.00;;;;;;5126379;27;47035;-16
2022/01/03 00:26:16;;;;;;;3.45;2.53;;;15.20;52.00;;;;;;5126720;27;46927;-17
2022/01/03 00:28:48;;;;;;;3.90;2.67;;;15.30;52.00;;;;;;5126761;27;47263;-16
2022/01/03 00:31:14;;;;;;;3.45;2.63;;;15.20;52.00;;;;;;5126666;27;47051;-15
2022/01/03 00:33:41;;;;;;;3.50;2.88;;;15.30;52.00;;;;;;5126216;27;46895;-16
2022/01/03 00:36:08;;;;;;;3.35;2.47;;;15.30;52.00;;;;;;5126500;27;47162;-16
2022/01/03 00:38:36;;;;;;;3.15;2.55;;;15.20;52.00;;;;;;5126701;27;46879;-17
2022/01/03 00:41:03;;;;;;;3.83;2.60;;;15.30;52.00;;;;;;5126298;27;48803;-16
2022/01/03 00:43:31;;;;;;;3.80;2.65;;;15.20;52.00;;;;;;5127939;27;46978;-15
2022/01/03 00:45:58;;;;;;;3.35;2.42;;;15.20;52.00;;;;;;5130121;27;46886;-16
2022/01/03 00:48:24;;;;;;;4.03;2.72;;;15.30;52.10;;;;;;5130067;27;47231;-16
2022/01/03 00:50:51;;;;;;;2.67;2.47;;;15.30;52.10;;;;;;5129763;27;48128;-16
2022/01/03 00:53:19;;;;;;;2.67;2.30;;;15.20;52.10;;;;;;5129958;27;46817;-16
2022/01/03 00:56:04;;;;;;;2.97;2.50;;;15.20;52.10;;;;;;5129836;27;46947;-16
2022/01/03 00:58:34;;;;;;;3.55;2.22;;;15.20;52.20;;;;;;5130188;27;46850;-16
2022/01/03 01:01:01;;;;;;;2.40;2.20;;;15.20;52.20;;;;;;5129709;27;47857;-16
2022/01/03 01:03:29;;;;;;;3.30;2.08;;;15.30;52.20;;;;;;5129600;27;46918;-15
2022/01/03 01:05:55;;;;;;;3.38;2.75;;;15.30;52.20;;;;;;5129405;27;47105;-15
2022/01/03 01:08:23;;;;;;;2.90;2.40;;;15.20;52.20;;;;;;5130371;27;47106;-15
2022/01/03 01:10:51;;;;;;;2.47;2.03;;;15.20;52.20;;;;;;5129581;27;47933;-15
2022/01/03 01:13:18;;;;;;;3.70;2.33;;;15.20;52.20;;;;;;5129447;27;46861;-15
2022/01/03 01:15:44;;;;;;;2.58;2.05;;;15.20;52.20;;;;;;5129819;27;47149;-16
2022/01/03 01:18:11;;;;;;;3.25;2.50;;;15.20;52.20;;;;;;5129903;27;46922;-16
2022/01/03 01:20:39;;;;;;;2.80;2.10;;;15.20;52.10;;;;;;5129449;27;48065;-16
2022/01/03 01:23:06;;;;;;;2.45;1.90;;;15.20;52.20;;;;;;5129252;27;47310;-16
2022/01/03 01:28:18;;;;;;;3.25;2.28;;;15.20;52.20;;;;;;5126822;27;46987;-16
2022/01/03 01:30:45;;;;;;;2.97;2.00;;;15.20;52.20;;;;;;5129351;27;49054;-16
2022/01/03 01:33:12;;;;;;;3.13;2.10;;;15.30;52.20;;;;;;5129446;27;46838;-16
2022/01/03 01:35:42;;;;;;;3.42;2.22;;;15.20;52.20;;;;;;5129310;27;46847;-16
2022/01/03 01:38:09;;;;;;;3.20;2.40;;;15.20;52.20;;;;;;5129714;27;46917;-15
2022/01/03 01:40:36;;;;;;;3.83;2.28;;;15.20;52.30;;;;;;5129030;27;48019;-15
2022/01/03 01:43:03;;;;;;;3.30;1.95;;;15.30;52.30;;;;;;5129077;27;47092;-15
2022/01/03 01:45:31;;;;;;;2.83;2.08;;;15.20;52.30;;;;;;5129178;27;46867;-16
2022/01/03 01:47:59;;;;;;;3.90;2.60;;;15.30;52.30;;;;;;5129174;27;46824;-15
2022/01/03 01:50:26;;;;;;;3.40;2.00;;;15.30;52.20;;;;;;5128721;27;49050;-16
2022/01/03 01:52:54;;;;;;;2.55;1.98;;;15.20;52.30;;;;;;5129206;27;47390;-15
2022/01/03 01:55:20;;;;;;;2.97;2.00;;;15.30;52.30;;;;;;5128328;27;46758;-15
2022/01/03 01:57:53;;;;;;;2.85;2.33;;;15.20;52.30;;;;;;5129020;27;47262;-15
2022/01/03 02:00:19;;;;;;;3.47;2.00;;;15.20;52.20;;;;;;5128687;27;49150;-16
2022/01/03 02:02:51;;;;;;;1.95;1.75;;;15.20;52.20;;;;;;5129083;27;46939;-15
2022/01/03 02:05:20;;;;;;;2.85;1.80;;;15.20;52.20;;;;;;5128606;27;46890;-15
2022/01/03 02:07:58;;;;;;;3.38;2.35;;;15.20;52.20;;;;;;5129122;27;47210;-16
2022/01/03 02:10:30;;;;;;;2.88;2.17;;;15.20;52.50;;;;;;5128438;27;47072;-15
2022/01/03 02:12:56;;;;;;;2.47;1.98;;;15.20;52.30;;;;;;5129025;27;46805;-16
2022/01/03 02:15:23;;;;;;;2.72;1.65;;;15.20;52.30;;;;;;5128415;27;46980;-16
2022/01/03 02:17:51;;;;;;;2.00;1.85;;;15.20;52.30;;;;;;5128969;27;47377;-17
2022/01/03 02:20:21;;;;;;;2.80;1.80;;;15.20;52.20;;;;;;5128746;27;49112;-16
2022/01/03 02:22:48;;;;;;;2.67;1.60;;;15.20;52.20;;;;;;5128443;27;47424;-15
2022/01/03 02:25:16;;;;;;;3.30;1.95;;;15.20;52.30;;;;;;5128202;27;46916;-17
2022/01/03 02:27:43;;;;;;;3.22;2.08;;;15.20;52.90;;;;;;5128921;27;46955;-15
2022/01/03 02:30:11;;;;;;;3.05;1.65;;;15.20;52.30;;;;;;5128351;27;47817;-16
2022/01/03 02:32:38;;;;;;;2.10;1.90;;;15.20;52.20;;;;;;5128619;27;47239;-16
2022/01/03 02:35:05;;;;;;;2.72;1.73;;;15.20;52.30;;;;;;5128293;27;46935;-17
2022/01/03 02:37:33;;;;;;;2.20;1.80;;;15.20;52.20;;;;;;5128526;27;47218;-16
2022/01/03 02:40:00;;;;;;;1.70;1.50;;;15.20;52.30;;;;;;5127803;27;46778;-16
2022/01/03 02:42:27;;;;;;;2.97;1.80;;;15.20;52.30;;;;;;5128261;27;46834;-16
2022/01/03 02:45:00;;;;;;;1.92;1.63;;;15.20;52.30;;;;;;5128279;27;46730;-16
2022/01/03 02:47:27;;;;;;;2.70;1.77;;;15.20;52.90;;;;;;5128197;27;46851;-16
2022/01/03 02:49:54;;;;;;;1.70;1.60;;;15.20;52.30;;;;;;5127762;27;48700;-16
2022/01/03 02:52:21;;;;;;;2.50;1.55;;;15.20;52.30;;;;;;5128198;27;46881;-16
2022/01/03 02:54:49;;;;;;;1.85;1.52;;;15.20;52.30;;;;;;5128181;27;47005;-16
2022/01/03 02:57:16;;;;;;;2.20;1.50;;;15.20;52.30;;;;;;5128349;27;46848;-16
2022/01/03 02:59:42;;;;;;;2.00;1.63;;;15.20;52.30;;;;;;5127880;27;48790;-17
2022/01/03 03:02:09;;;;;;;2.83;1.60;;;15.20;52.40;;;;;;5127670;27;46931;-16
2022/01/03 03:04:51;;;;;;;2.25;1.60;;;15.20;52.30;;;;;;5127864;27;46959;-16
2022/01/03 03:07:19;;;;;;;3.60;1.90;;;15.20;52.40;;;;;;5126843;27;47016;-16
2022/01/03 03:09:45;;;;;;;3.00;1.80;;;15.20;52.30;;;;;;5127505;27;49128;-17
2022/01/03 03:12:13;;;;;;;3.10;1.40;;;15.20;52.40;;;;;;5127853;27;46972;-15
2022/01/03 03:14:40;;;;;;;2.33;1.63;;;15.20;52.40;;;;;;5127381;27;46853;-15
2022/01/03 03:17:07;;;;;;;3.17;1.83;;;15.20;52.40;;;;;;5127850;27;46897;-15
2022/01/03 03:19:34;;;;;;;1.77;1.50;;;15.20;52.40;;;;;;5127477;27;48871;-15
2022/01/03 03:22:00;;;;;;;2.67;1.58;;;15.20;52.40;;;;;;5127049;27;46963;-15
2022/01/03 03:24:27;;;;;;;1.98;1.58;;;15.20;52.40;;;;;;5127297;27;47000;-15
2022/01/03 03:26:54;;;;;;;2.35;1.52;;;15.20;52.40;;;;;;5127786;27;46884;-16
2022/01/03 03:29:22;;;;;;;1.65;1.50;;;15.20;52.40;;;;;;5127425;27;48855;-17
2022/01/03 03:31:48;;;;;;;2.50;1.45;;;15.20;52.50;;;;;;5127545;27;46751;-17
2022/01/03 03:34:15;;;;;;;2.72;1.50;;;15.20;52.40;;;;;;5127528;27;47002;-16
2022/01/03 03:36:42;;;;;;;3.00;1.88;;;15.20;52.50;;;;;;5127831;27;46868;-15
2022/01/03 03:39:08;;;;;;;2.25;1.42;;;15.20;52.50;;;;;;5127236;27;48873;-15
2022/01/03 03:41:35;;;;;;;1.40;1.30;;;15.20;52.50;;;;;;5127344;27;46866;-15
2022/01/03 03:44:02;;;;;;;2.13;1.55;;;15.20;52.50;;;;;;5126957;27;46791;-15
2022/01/03 03:46:30;;;;;;;2.95;1.50;;;15.20;52.50;;;;;;5127188;27;46849;-15
2022/01/03 03:48:57;;;;;;;1.63;1.38;;;15.20;52.50;;;;;;5127166;27;46871;-15
2022/01/03 03:51:23;;;;;;;2.40;1.45;;;15.20;52.50;;;;;;5126933;27;46841;-15
2022/01/03 03:53:50;;;;;;;2.58;1.35;;;15.20;52.50;;;;;;5127260;27;46877;-15
2022/01/03 03:56:17;;;;;;;1.40;1.30;;;15.20;52.50;;;;;;5127354;27;46906;-15
2022/01/03 03:58:43;;;;;;;2.90;1.55;;;15.20;52.50;;;;;;5127045;27;48083;-15
2022/01/03 04:01:10;;;;;;;1.75;1.30;;;15.20;52.60;;;;;;5127159;27;46917;-15
2022/01/03 04:03:38;;;;;;;1.60;1.50;;;15.20;52.50;;;;;;5127132;27;46863;-16
2022/01/03 04:06:05;;;;;;;2.97;1.60;;;15.20;52.40;;;;;;5127307;27;47002;-16
2022/01/03 04:08:32;;;;;;;2.15;1.40;;;15.20;52.60;;;;;;5126869;27;47984;-16
2022/01/03 04:10:59;;;;;;;2.17;1.40;;;15.20;52.60;;;;;;5126766;27;46796;-16
2022/01/03 04:13:25;;;;;;;1.95;1.60;;;15.20;52.50;;;;;;5127013;27;47207;-16
2022/01/03 04:15:52;;;;;;;1.85;1.33;;;15.20;53.20;;;;;;5126989;27;46897;-15
2022/01/03 04:18:19;;;;;;;3.17;1.35;;;15.20;52.60;;;;;;5126550;27;48090;-16
2022/01/03 04:20:47;;;;;;;2.85;1.70;;;15.20;52.60;;;;;;5126576;27;47402;-15
2022/01/03 04:23:15;;;;;;;2.75;1.40;;;15.20;52.60;;;;;;5126898;27;46886;-19
2022/01/03 04:25:42;;;;;;;2.17;1.30;;;15.20;52.60;;;;;;5126603;27;46850;-15
2022/01/03 04:28:09;;;;;;;1.70;1.35;;;15.20;52.60;;;;;;5126347;27;47066;-15
2022/01/03 04:30:36;;;;;;;2.92;1.58;;;15.20;52.60;;;;;;5126691;27;46861;-15
2022/01/03 04:33:03;;;;;;;1.33;1.20;;;15.10;52.60;;;;;;5126506;27;46976;-16
2022/01/03 04:35:30;;;;;;;1.63;1.20;;;15.20;52.60;;;;;;5126609;27;46722;-16
2022/01/03 04:37:58;;;;;;;1.90;1.23;;;15.20;52.60;;;;;;5126291;27;47895;-16
2022/01/03 04:40:24;;;;;;;2.33;1.30;;;15.10;52.60;;;;;;5126565;27;46936;-16
2022/01/03 04:42:51;;;;;;;1.88;1.35;;;15.10;52.60;;;;;;5126772;27;46956;-16
2022/01/03 04:45:18;;;;;;;2.08;1.38;;;15.10;52.60;;;;;;5126019;27;47033;-16
2022/01/03 04:47:45;;;;;;;2.42;1.40;;;15.10;52.50;;;;;;5126476;27;48872;-16
2022/01/03 04:50:11;;;;;;;1.58;1.25;;;15.10;52.60;;;;;;5126105;27;46853;-16
2022/01/03 04:52:38;;;;;;;1.83;1.23;;;15.10;52.60;;;;;;5126693;27;46904;-16
2022/01/03 04:55:07;;;;;;;1.73;1.17;;;15.10;52.50;;;;;;5126383;27;46900;-16
2022/01/03 04:57:34;;;;;;;2.03;1.30;;;15.10;52.60;;;;;;5126278;27;48116;-15
2022/01/03 05:00:00;;;;;;;1.73;1.23;;;15.10;52.60;;;;;;5125791;27;46829;-15
2022/01/03 05:02:27;;;;;;;1.27;1.20;;;15.10;52.60;;;;;;5126030;27;46971;-16
2022/01/03 05:04:54;;;;;;;2.63;1.35;;;15.10;52.60;;;;;;5126055;27;46899;-15
2022/01/03 05:07:20;;;;;;;2.20;1.27;;;15.10;52.60;;;;;;5125998;27;49037;-15
2022/01/03 05:09:47;;;;;;;1.38;1.17;;;15.10;52.60;;;;;;5125955;27;47019;-15
2022/01/03 05:12:16;;;;;;;1.45;1.20;;;15.10;52.60;;;;;;5126133;27;46746;-16
2022/01/03 05:14:43;;;;;;;1.58;1.10;;;15.10;52.60;;;;;;5126005;27;47094;-15
2022/01/03 05:17:10;;;;;;;1.02;1.00;;;15.10;52.60;;;;;;5125662;27;46996;-16
2022/01/03 05:19:37;;;;;;;1.58;1.13;;;15.10;52.60;;;;;;5126013;27;47184;-16
2022/01/03 05:22:04;;;;;;;2.47;1.25;;;15.10;52.60;;;;;;5125823;27;46882;-17
2022/01/03 05:24:33;;;;;;;2.50;1.30;;;15.10;52.50;;;;;;5125635;27;46901;-16
2022/01/03 05:26:59;;;;;;;1.98;1.10;;;15.10;52.60;;;;;;5125991;27;48076;-16
2022/01/03 05:29:28;;;;;;;2.08;1.05;;;15.10;52.50;;;;;;5126941;27;47950;-16
2022/01/03 05:31:55;;;;;;;2.92;1.27;;;15.10;52.60;;;;;;5129475;27;46958;-15
2022/01/03 05:34:21;;;;;;;2.78;1.45;;;15.10;52.50;;;;;;5129357;27;47203;-16
2022/01/03 05:36:48;;;;;;;1.83;1.30;;;15.10;52.60;;;;;;5129604;27;46869;-17
2022/01/03 05:39:15;;;;;;;1.67;1.27;;;15.10;52.60;;;;;;5129137;27;47446;-15
2022/01/03 05:41:42;;;;;;;1.65;1.10;;;15.10;52.60;;;;;;5129511;27;46737;-15
2022/01/03 05:44:08;;;;;;;1.92;1.38;;;15.10;52.60;;;;;;5129001;27;47262;-16
2022/01/03 05:46:37;;;;;;;1.20;1.10;;;15.10;52.60;;;;;;5129345;27;48383;-15
2022/01/03 05:49:04;;;;;;;1.73;1.40;;;15.10;52.60;;;;;;5128736;27;47094;-15
2022/01/03 05:51:30;;;;;;;1.85;1.13;;;15.10;52.70;;;;;;5128979;27;47000;-16
2022/01/03 05:53:57;;;;;;;3.08;1.17;;;15.10;52.70;;;;;;5129211;27;46966;-15
2022/01/03 05:56:24;;;;;;;1.30;0.90;;;15.10;52.70;;;;;;5129044;27;49036;-15
2022/01/03 05:58:51;;;;;;;1.52;1.20;;;15.10;52.70;;;;;;5129044;27;46908;-15
2022/01/03 06:01:19;;;;;;;1.50;1.23;;;15.10;52.70;;;;;;5128834;27;46892;-15
2022/01/03 06:03:48;;;;;;;3.05;1.40;;;15.10;52.60;;;;;;5128944;27;47262;-15
2022/01/03 06:06:30;;;;;;;2.67;1.10;;;15.10;52.70;;;;;;5128920;27;48828;-15
2022/01/03 06:08:57;;;;;;;1.33;0.90;;;15.10;52.70;;;;;;5128537;27;47432;-15
2022/01/03 06:11:24;;;;;;;2.15;1.15;;;15.10;52.70;;;;;;5128939;27;46886;-15
2022/01/03 06:13:50;;;;;;;1.35;1.13;;;15.10;52.70;;;;;;5128759;27;46881;-15
2022/01/03 06:16:17;;;;;;;1.40;1.08;;;15.10;52.70;;;;;;5128719;27;47989;-17
2022/01/03 06:18:44;;;;;;;2.67;1.20;;;15.10;52.70;;;;;;5128700;27;46909;-16
2022/01/03 06:21:12;;;;;;;1.63;1.13;;;15.10;52.60;;;;;;5128527;27;46965;-16
2022/01/03 06:23:39;;;;;;;1.13;0.85;;;15.10;52.60;;;;;;5128253;27;47196;-16
2022/01/03 06:26:06;;;;;;;1.02;0.93;;;15.10;52.50;;;;;;5128103;27;47059;-16
2022/01/03 06:28:33;;;;;;;3.00;1.30;;;15.10;52.50;;;;;;5128095;27;46936;-17
2022/01/03 06:31:00;;;;;;;1.50;1.23;;;15.10;52.70;;;;;;5128127;27;46894;-16
2022/01/03 06:33:27;;;;;;;1.25;1.15;;;15.00;52.60;;;;;;5127479;27;46975;-16
2022/01/03 06:35:53;;;;;;;1.73;1.08;;;15.10;52.70;;;;;;5128066;27;48748;-16
2022/01/03 06:38:21;;;;;;;1.85;0.93;;;15.10;52.70;;;;;;5128319;27;46774;-16
2022/01/03 06:40:48;;;;;;;2.05;0.90;;;15.10;52.70;;;;;;5127940;27;46887;-16
2022/01/03 06:43:15;;;;;;;1.73;1.10;;;15.00;52.60;;;;;;5128541;27;47150;-15
2022/01/03 06:45:41;;;;;;;1.33;1.00;;;15.00;52.70;;;;;;5127692;27;49962;-16
2022/01/03 06:48:08;;;;;;;1.05;0.90;;;15.00;52.70;;;;;;5128041;27;46970;-16
2022/01/03 06:50:36;;;;;;;1.30;1.00;;;15.00;52.70;;;;;;5127801;27;46885;-14
2022/01/03 06:53:03;;;;;;;1.73;1.20;;;15.00;52.70;;;;;;5127948;27;46969;-15
2022/01/03 06:55:31;;;;;;;1.85;1.10;;;15.00;52.60;;;;;;5127736;27;48738;-14
2022/01/03 06:57:58;;;;;;;1.33;1.20;;;15.00;52.70;;;;;;5128064;27;47457;-15
2022/01/03 07:00:25;;;;;;;1.83;1.10;;;15.00;52.70;;;;;;5127830;27;46886;-15
2022/01/03 07:02:51;;;;;;;1.20;1.08;;;15.00;52.80;;;;;;5128192;27;46884;-16
2022/01/03 07:05:18;;;;;;;1.70;1.00;;;15.00;52.70;;;;;;5127480;27;49198;-15
2022/01/03 07:07:45;;;;;;;1.15;1.05;;;15.00;52.60;;;;;;5127534;27;47113;-15
2022/01/03 07:10:11;;;;;;;0.73;0.70;;;15.00;52.70;;;;;;5128009;27;46874;-15
2022/01/03 07:12:40;;;;;;;1.13;1.02;;;15.00;52.70;;;;;;5127774;27;47197;-15
2022/01/03 07:20:36;;;;;;;2.63;1.35;;;15.00;52.70;;;;;;5127047;27;47092;-16
2022/01/03 07:23:03;;;;;;;1.25;1.10;;;15.00;52.70;;;;;;5127700;27;46861;-14
2022/01/03 07:25:29;;;;;;;0.85;0.85;;;15.00;52.70;;;;;;5127347;27;49074;-15
2022/01/03 07:27:57;;;;;;;1.38;0.90;;;15.00;52.70;;;;;;5127604;27;46949;-15
2022/01/03 07:30:24;;;;;;;1.95;1.02;;;15.00;52.70;;;;;;5127402;27;46916;-15
2022/01/03 07:32:51;;;;;;;1.75;0.90;;;15.00;52.70;;;;;;5127758;27;47275;-15
2022/01/03 07:35:18;;;;;;;1.88;1.00;;;15.00;52.70;;;;;;5127145;27;47858;-15
2022/01/03 07:37:45;;;;;;;1.17;0.90;;;15.00;52.70;;;;;;5127150;27;46999;-15
2022/01/03 07:40:12;;;;;;;2.17;1.05;;;15.00;52.70;;;;;;5127403;27;46875;-15
2022/01/03 07:42:40;;;;;;;1.90;1.00;;;15.00;52.80;;;;;;5127603;27;46782;-16
2022/01/03 07:45:09;;;;;;;2.40;1.10;;;15.00;52.60;;;;;;5126534;27;48959;-16
2022/01/03 07:47:36;;;;;;;1.58;0.90;;;15.00;52.70;;;;;;5126854;27;46838;-16
2022/01/03 07:50:03;;;;;;;1.55;1.10;;;15.00;52.70;;;;;;5126909;27;46910;-16
2022/01/03 07:52:30;;;;;;;1.25;1.00;;;15.00;52.70;;;;;;5126590;27;47266;-16
2022/01/03 07:54:56;;;;;;;1.45;0.80;;;15.00;52.70;;;;;;5127179;27;48828;-16
2022/01/03 07:57:23;;;;;;;1.55;1.05;;;15.00;52.70;;;;;;5127162;27;46896;-16
2022/01/03 07:59:50;;;;;;;1.63;0.90;;;15.00;52.80;;;;;;5127004;27;46872;-16
2022/01/03 08:02:18;;;;;;;0.98;0.80;;;15.00;52.70;;;;;;5127026;27;47333;-16
2022/01/03 08:04:45;;;;;;;2.05;0.98;;;15.00;52.80;;;;;;5126688;27;47849;-16
2022/01/03 08:07:12;;;;;;;1.23;0.90;;;15.00;52.80;;;;;;5126921;27;46913;-16
2022/01/03 08:09:38;;;;;;;1.70;0.98;;;15.00;52.70;;;;;;5126830;27;46925;-16
2022/01/03 08:12:06;;;;;;;0.80;0.80;;;15.00;52.80;;;;;;5126991;27;47218;-16
2022/01/03 08:14:32;;;;;;;1.35;0.82;;;15.00;52.80;;;;;;5126485;27;48957;-15
2022/01/03 08:16:59;;;;;;;1.20;0.98;;;15.00;52.90;;;;;;5126671;27;46955;-16
2022/01/03 08:19:27;;;;;;;1.25;1.10;;;15.00;52.90;;;;;;5126281;27;46918;-15
2022/01/03 08:21:54;;;;;;;2.13;0.90;;;15.00;52.90;;;;;;5127040;27;46915;-15
2022/01/03 08:24:21;;;;;;;2.45;1.00;;;15.00;52.90;;;;;;5126440;27;47947;-15
2022/01/03 08:26:49;;;;;;;2.03;0.93;;;15.00;52.90;;;;;;5126476;27;47018;-15
2022/01/03 08:29:16;;;;;;;2.55;1.10;;;15.00;52.90;;;;;;5126106;27;46976;-15
2022/01/03 08:31:42;;;;;;;2.97;1.02;;;15.00;52.90;;;;;;5126551;27;46868;-15
2022/01/03 08:34:09;;;;;;;1.27;0.80;;;15.00;52.90;;;;;;5126036;27;48695;-15
2022/01/03 08:36:37;;;;;;;1.88;0.85;;;15.00;52.90;;;;;;5126311;27;47188;-14
2022/01/03 08:39:04;;;;;;;1.30;0.70;;;15.00;53.00;;;;;;5126391;27;46918;-15
2022/01/03 08:41:30;;;;;;;1.55;0.80;;;15.00;53.00;;;;;;5126342;27;47262;-15
2022/01/03 08:43:57;;;;;;;2.38;0.98;;;15.00;53.00;;;;;;5126179;27;47854;-15
2022/01/03 08:46:24;;;;;;;1.27;0.90;;;15.00;53.00;;;;;;5126223;27;46830;-15
2022/01/03 08:48:50;;;;;;;1.90;1.10;;;15.00;53.00;;;;;;5126337;27;46875;-15
2022/01/03 08:51:17;;;;;;;1.30;0.90;;;15.00;53.00;;;;;;5126372;27;46931;-15
2022/01/03 08:53:45;;;;;;;1.50;0.95;;;15.00;53.00;;;;;;5126308;27;47067;-15
2022/01/03 08:56:12;;;;;;;1.50;0.90;;;15.00;52.90;;;;;;5126300;27;47332;-15
2022/01/03 08:58:39;;;;;;;0.80;0.75;;;15.00;53.00;;;;;;5126307;27;46913;-15
2022/01/03 09:01:06;;;;;;;1.33;1.00;;;15.00;52.80;;;;;;5126454;27;46913;-15
2022/01/03 09:03:33;;;;;;;2.00;1.10;;;15.00;52.90;;;;;;5126103;27;49054;-15
2022/01/03 09:06:00;;;;;;;0.88;0.88;;;15.00;52.90;;;;;;5129672;27;46901;-15
2022/01/03 09:08:26;;;;;;;1.85;0.82;;;15.00;53.00;;;;;;5129877;27;46876;-15
2022/01/03 09:10:56;;;;;;;2.33;1.05;;;15.00;52.90;;;;;;5129944;27;47298;-15
2022/01/03 09:13:22;;;;;;;1.08;0.88;;;15.00;53.00;;;;;;5129717;27;48135;-15
2022/01/03 09:15:50;;;;;;;3.78;1.05;;;15.00;53.00;;;;;;5129946;27;47250;-15
2022/01/03 09:18:17;;;;;;;1.02;0.90;;;15.00;52.90;;;;;;5129844;27;46897;-15
2022/01/03 09:20:44;;;;;;;1.02;0.80;;;15.00;52.90;;;;;;5129408;27;46872;-15
2022/01/03 09:23:15;;;;;;;1.00;0.90;;;15.10;52.90;;;;;;5129420;27;47823;-15
2022/01/03 09:31:11;;;;;;;1.30;0.68;;;15.00;52.90;;;;;;5126874;27;46817;-15
2022/01/03 09:33:38;;;;;;;1.40;1.08;;;15.10;52.90;;;;;;5129118;27;47819;-15
2022/01/03 09:36:05;;;;;;;1.88;0.93;;;15.10;52.90;;;;;;5129418;27;46996;-15
2022/01/03 09:38:34;;;;;;;1.58;0.90;;;15.10;52.90;;;;;;5129459;27;47001;-15
2022/01/03 09:41:02;;;;;;;1.13;0.98;;;15.10;52.90;;;;;;5129621;27;47342;-15
2022/01/03 09:43:31;;;;;;;1.35;0.90;;;15.10;52.90;;;;;;5129370;27;48087;-16
2022/01/03 09:45:58;;;;;;;1.05;0.75;;;15.10;52.90;;;;;;5128984;27;46850;-15
2022/01/03 09:48:24;;;;;;;1.05;0.80;;;15.10;52.80;;;;;;5128920;27;46842;-15
2022/01/03 09:50:51;;;;;;;2.00;1.05;;;15.10;53.00;;;;;;5129248;27;47315;-14
2022/01/03 09:53:19;;;;;;;1.73;1.10;;;15.10;53.00;;;;;;5128863;27;46764;-15
2022/01/03 09:55:46;;;;;;;2.65;1.17;;;15.10;53.00;;;;;;5128590;27;46865;-15
2022/01/03 09:58:14;;;;;;;2.70;1.17;;;15.10;53.00;;;;;;5128883;27;46909;-15
2022/01/03 10:00:42;;;;;;;1.20;1.10;;;15.10;53.00;;;;;;5128731;27;47072;-15
2022/01/03 10:03:09;;;;;;;1.05;0.80;;;15.10;53.00;;;;;;5129019;27;47814;-16
2022/01/03 10:05:36;;;;;;;1.85;1.20;;;15.10;52.90;;;;;;5128344;27;46871;-16
2022/01/03 10:08:02;;;;;;;1.23;0.80;;;15.10;52.80;;;;;;5127819;27;47033;-16
2022/01/03 10:10:29;;;;;;;2.80;1.10;;;15.10;52.80;;;;;;5127829;27;47221;-16
2022/01/03 10:12:56;;;;;;;1.40;0.77;;;15.10;52.80;;;;;;5128899;27;46805;-16
2022/01/03 10:15:23;;;;;;;1.33;0.85;;;15.10;52.80;;;;;;5128104;27;46802;-16
2022/01/03 10:17:51;;;;;;;1.73;1.15;;;15.10;52.80;;;;;;5128422;27;46965;-17
2022/01/03 10:20:18;;;;;;;1.20;1.10;;;15.10;52.80;;;;;;5128437;27;47174;-15
2022/01/03 10:22:44;;;;;;;1.70;1.08;;;15.10;52.90;;;;;;5128594;27;47827;-15
2022/01/03 10:25:16;;;;;;;2.35;1.00;;;15.10;52.90;;;;;;5128342;27;47022;-15
2022/01/03 10:27:50;;;;;;;1.75;1.10;;;15.10;52.90;;;;;;5128728;27;46858;-15
2022/01/03 10:30:30;;;;;;;1.27;1.00;;;15.10;52.90;;;;;;5128746;27;47018;-15
2022/01/03 10:32:58;;;;;;;1.92;1.27;;;15.10;52.80;;;;;;5128589;27;47821;-15
2022/01/03 10:35:25;;;;;;;2.33;1.33;;;15.20;52.90;;;;;;5127975;27;46878;-15
2022/01/03 10:37:51;;;;;;;2.00;1.40;;;15.10;52.90;;;;;;5128432;27;46904;-15
2022/01/03 10:40:25;;;;;;;1.60;1.13;;;15.10;53.00;;;;;;5128665;27;46845;-15
2022/01/03 10:42:52;;;;;;;1.40;1.20;;;15.10;52.90;;;;;;5128468;27;48986;-15
2022/01/03 10:45:27;;;;;;;1.67;1.48;;;15.20;52.90;;;;;;5127555;27;46874;-15
2022/01/03 10:47:54;;;;;;;1.85;1.40;;;15.20;52.90;;;;;;5128865;27;46878;-15
2022/01/03 10:50:22;;;;;;;1.67;1.20;;;15.20;53.00;;;;;;5127267;27;46998;-15
2022/01/03 10:52:49;;;;;;;2.95;1.10;;;15.20;53.00;;;;;;5128066;27;48105;-15
2022/01/03 10:55:18;;;;;;;1.95;1.38;;;15.20;53.00;;;;;;5128094;27;47071;-15
2022/01/03 10:57:52;;;;;;;1.98;1.50;;;15.20;53.00;;;;;;5128375;27;46918;-16
2022/01/03 11:00:20;;;;;;;2.10;1.63;;;15.20;52.70;;;;;;5127945;27;46937;-15
2022/01/03 11:03:17;;;;;;;4.35;1.50;;;15.20;53.00;;;;;;5127755;27;47738;-16
2022/01/03 11:05:49;;;;;;;3.13;1.50;;;15.10;52.90;;;;;;5127685;27;47081;-16
2022/01/03 11:11:00;;;;;;;1.95;1.50;;;15.20;52.90;;;;;;5128221;27;47234;-16
2022/01/03 11:13:27;;;;;;;2.65;1.92;;;15.20;53.00;;;;;;5127901;27;47844;-16
2022/01/03 11:15:55;;;;;;;2.10;1.60;;;15.20;52.90;;;;;;5127364;27;47536;-16
2022/01/03 11:18:22;;;;;;;3.25;1.80;;;15.20;53.00;;;;;;5127534;27;46865;-15
2022/01/03 11:20:51;;;;;;;2.63;1.60;;;15.20;52.90;;;;;;5127553;27;47319;-16
2022/01/03 11:23:22;;;;;;;2.38;1.95;;;15.20;53.00;;;;;;5127051;27;48827;-16
2022/01/03 11:25:49;;;;;;;3.30;1.58;;;15.20;53.00;;;;;;5127550;27;47122;-16
2022/01/03 11:28:16;;;;;;;2.47;1.58;;;15.20;53.00;;;;;;5126827;27;46842;-17
2022/01/03 11:30:44;;;;;;;1.63;1.42;;;15.20;53.00;;;;;;5127451;27;46796;-16
2022/01/03 11:33:11;;;;;;;2.08;1.60;;;15.20;53.00;;;;;;5127470;27;49068;-16
2022/01/03 11:35:38;;;;;;;2.55;2.00;;;15.20;53.00;;;;;;5127066;27;46858;-17
2022/01/03 11:38:06;;;;;;;5.25;2.40;;;15.20;53.30;;;;;;5127254;27;46938;-16
2022/01/03 11:40:33;;;;;;;3.88;1.88;;;15.20;53.40;;;;;;5127429;27;46756;-18
2022/01/03 11:43:00;;;;;;;5.10;2.08;;;15.20;53.50;;;;;;5127395;27;47825;-16
2022/01/03 11:45:27;;;;;;;2.58;2.00;;;15.30;53.40;;;;;;5127010;27;46993;-16
2022/01/03 11:47:54;;;;;;;6.05;1.85;;;15.20;53.40;;;;;;5127060;27;46899;-17
2022/01/03 11:50:21;;;;;;;4.90;2.83;;;15.30;53.50;;;;;;5126836;27;46999;-16
2022/01/03 11:52:47;;;;;;;7.20;2.38;;;15.20;53.40;;;;;;5126834;27;48850;-16
2022/01/03 11:55:15;;;;;;;8.85;2.92;;;15.30;53.40;;;;;;5126683;27;46908;-15
2022/01/03 11:57:59;;;;;;;4.80;2.28;;;15.30;53.50;;;;;;5126956;27;46891;-15
2022/01/03 12:03:38;;;;;;;4.13;2.30;;;15.20;53.50;;;;;;5075858;27;47802;-15
2022/01/03 12:06:07;;;;;;;6.30;2.95;;;15.30;53.60;;;;;;5126838;27;46918;-16
2022/01/03 12:08:35;;;;;;;5.45;2.90;;;15.30;53.50;;;;;;5126779;27;46874;-16
2022/01/03 12:11:03;;;;;;;4.82;2.95;;;15.30;53.50;;;;;;5127060;27;46963;-15
2022/01/03 12:13:52;;;;;;;3.47;2.40;;;15.30;53.50;;;;;;5126893;27;46899;-16
2022/01/03 12:16:19;;;;;;;4.07;2.72;;;15.30;53.50;;;;;;5126604;27;46857;-16
2022/01/03 12:18:58;;;;;;;7.20;2.85;;;15.30;53.40;;;;;;5126643;27;46901;-16
2022/01/03 12:21:50;;;;;;;5.30;3.03;;;15.30;53.50;;;;;;5126711;27;47109;-16
2022/01/03 12:24:42;;;;;;;5.30;2.53;;;15.30;53.50;;;;;;5126662;27;47864;-16
2022/01/03 12:27:30;;;;;;;4.32;2.70;;;15.30;53.50;;;;;;5126278;27;47941;-16
2022/01/03 12:30:19;;;;;;;3.58;2.80;;;15.30;53.50;;;;;;5126534;27;46893;-16
2022/01/03 12:33:14;;;;;;;5.13;2.55;;;15.30;53.50;;;;;;5126575;27;46954;-15
2022/01/03 12:35:41;;;;;;;4.18;2.85;;;15.30;53.50;;;;;;5126020;27;47048;-16
2022/01/03 12:38:17;;;;;;;4.47;2.75;;;15.30;53.50;;;;;;5126551;27;47010;-16
2022/01/03 12:40:48;;;;;;;3.53;2.60;;;15.30;53.40;;;;;;5126343;27;46892;-15
2022/01/03 12:43:17;;;;;;;6.97;2.75;;;15.30;53.60;;;;;;5126821;27;46905;-15
2022/01/03 12:45:54;;;;;;;3.75;2.58;;;15.30;53.60;;;;;;5125939;27;47864;-15
2022/01/03 12:48:21;;;;;;;3.58;2.35;;;15.30;53.60;;;;;;5126422;27;46973;-15
2022/01/03 12:51:09;;;;;;;5.15;2.58;;;15.30;53.60;;;;;;5126238;27;46817;-14
2022/01/03 12:53:40;;;;;;;5.43;2.22;;;15.30;53.60;;;;;;5126402;27;46950;-14
2022/01/03 12:56:09;;;;;;;5.32;2.63;;;15.30;53.60;;;;;;5126290;27;48208;-15
2022/01/03 12:58:42;;;;;;;3.03;2.40;;;15.30;53.70;;;;;;5125575;27;47036;-15
2022/01/03 13:01:21;;;;;;;4.93;2.70;;;15.30;53.70;;;;;;5126196;27;46925;-14
2022/01/03 13:03:49;;;;;;;3.13;2.58;;;15.40;53.70;;;;;;5126247;27;46898;-15
2022/01/03 13:06:17;;;;;;;3.25;2.88;;;15.40;53.70;;;;;;5125847;27;48207;-15
2022/01/03 13:08:46;;;;;;;5.65;2.47;;;15.40;53.70;;;;;;5125781;27;46805;-15
2022/01/03 13:11:14;;;;;;;4.10;2.65;;;15.30;54.30;;;;;;5126142;27;46888;-15
2022/01/03 13:13:42;;;;;;;3.53;2.50;;;15.40;53.70;;;;;;5126092;27;47321;-15